Time;durP1;ratioP1;P1;durP2;ratioP2;P2;SDS_P1;SDS_P2;PMS_P1;PMS_P2;Temp;Humidity;BMP_temperature;BMP_pressure;BME280_temperature;BME280_humidity;BME280_pressure;Samples;Min_cycle;Max_cycle;Signal;HPM_P1;HPM_P2
2024/01/09 00:02:05;;;;;;;19.60;18.00;;;-5.00;99.90;;;;;;4951919;28;20228;-60
2024/01/09 00:04:32;;;;;;;19.03;17.70;;;-5.00;99.90;;;;;;4954364;28;20194;-60
2024/01/09 00:06:59;;;;;;;19.13;17.70;;;-5.00;99.90;;;;;;4961915;28;20777;-60
2024/01/09 00:09:26;;;;;;;19.23;17.83;;;-5.10;99.90;;;;;;4962743;28;20217;-60
2024/01/09 00:11:53;;;;;;;19.37;17.97;;;-5.00;99.90;;;;;;4948145;28;20226;-60
2024/01/09 00:14:20;;;;;;;18.53;17.27;;;-5.10;99.90;;;;;;4949223;28;20206;-60
2024/01/09 00:16:48;;;;;;;19.17;17.77;;;-5.20;99.90;;;;;;4950064;28;20531;-60
2024/01/09 00:19:16;;;;;;;19.63;18.13;;;-5.10;99.90;;;;;;4950621;28;20214;-60
2024/01/09 00:21:46;;;;;;;19.50;18.00;;;-5.10;99.90;;;;;;4949382;28;20218;-60
2024/01/09 00:24:13;;;;;;;18.87;17.57;;;-5.10;99.90;;;;;;4947554;28;20881;-61
2024/01/09 00:26:48;;;;;;;19.03;17.60;;;-5.10;99.90;;;;;;4963698;28;20198;-60
2024/01/09 00:29:15;;;;;;;18.73;17.43;;;-5.10;99.90;;;;;;4942567;28;20256;-60
2024/01/09 00:31:44;;;;;;;18.90;17.60;;;-5.20;99.90;;;;;;4950990;28;20198;-60
2024/01/09 00:34:11;;;;;;;19.67;18.07;;;-5.10;99.90;;;;;;4968647;28;20209;-60
2024/01/09 00:36:43;;;;;;;19.80;18.20;;;-5.10;99.90;;;;;;4951553;28;20213;-60
2024/01/09 00:39:11;;;;;;;19.10;17.70;;;-5.10;99.90;;;;;;4952507;28;20235;-60
2024/01/09 00:41:37;;;;;;;19.10;17.73;;;-5.20;99.90;;;;;;4948101;29;20207;-60
2024/01/09 00:44:04;;;;;;;19.50;17.90;;;-5.30;99.90;;;;;;4929589;29;20202;-60
2024/01/09 00:46:32;;;;;;;18.80;17.40;;;-5.20;99.90;;;;;;4948427;29;20195;-59
2024/01/09 00:48:58;;;;;;;19.70;18.20;;;-5.20;99.90;;;;;;4948780;29;20218;-59
2024/01/09 00:51:26;;;;;;;19.27;17.87;;;-5.20;99.90;;;;;;4948238;29;20265;-59
2024/01/09 00:53:54;;;;;;;19.30;17.90;;;-5.20;99.90;;;;;;4936620;29;20226;-60
2024/01/09 00:56:21;;;;;;;19.40;18.00;;;-5.20;99.90;;;;;;4937519;29;20195;-59
2024/01/09 00:58:48;;;;;;;19.73;18.17;;;-5.30;99.90;;;;;;4930095;29;20286;-59
2024/01/09 01:01:15;;;;;;;19.60;18.00;;;-5.30;99.90;;;;;;4946929;28;20206;-60
2024/01/09 01:03:42;;;;;;;19.00;17.50;;;-5.30;99.90;;;;;;4945931;29;20191;-60
2024/01/09 01:06:09;;;;;;;19.60;18.13;;;-5.30;99.90;;;;;;4944815;28;20263;-60
2024/01/09 01:08:37;;;;;;;19.27;17.87;;;-5.30;99.90;;;;;;4934867;29;20282;-60
2024/01/09 01:11:08;;;;;;;19.30;17.67;;;-5.30;99.90;;;;;;4952996;29;20223;-60
2024/01/09 01:13:35;;;;;;;19.03;17.73;;;-5.30;99.90;;;;;;4947741;29;20195;-60
2024/01/09 01:16:02;;;;;;;18.93;17.63;;;-5.30;99.90;;;;;;4933644;29;20207;-60
2024/01/09 01:18:29;;;;;;;19.13;17.73;;;-5.30;99.90;;;;;;4950093;29;20199;-60
2024/01/09 01:20:56;;;;;;;19.30;17.90;;;-5.30;99.90;;;;;;4932031;29;20578;-60
2024/01/09 01:23:23;;;;;;;19.60;18.10;;;-5.30;99.90;;;;;;4950591;29;20274;-60
2024/01/09 01:25:50;;;;;;;18.87;17.57;;;-5.40;99.90;;;;;;4927425;29;20205;-60
2024/01/09 01:28:17;;;;;;;19.23;17.77;;;-5.40;99.90;;;;;;4948904;28;20195;-62
2024/01/09 01:30:44;;;;;;;19.07;17.73;;;-5.40;99.90;;;;;;4947675;29;20209;-59
2024/01/09 01:33:11;;;;;;;18.90;17.50;;;-5.40;99.90;;;;;;4948613;28;20571;-60
2024/01/09 01:35:38;;;;;;;19.00;17.70;;;-5.40;99.90;;;;;;4933728;29;20710;-60
2024/01/09 01:38:05;;;;;;;19.30;17.90;;;-5.40;99.90;;;;;;4953752;28;20244;-60
2024/01/09 01:40:32;;;;;;;19.23;17.73;;;-5.40;99.90;;;;;;4962074;28;20199;-61
2024/01/09 01:42:59;;;;;;;19.50;18.00;;;-5.40;99.90;;;;;;4947631;28;20329;-60
2024/01/09 01:45:27;;;;;;;19.00;17.60;;;-5.40;99.90;;;;;;4950985;28;20595;-60
2024/01/09 01:47:54;;;;;;;19.10;17.37;;;-5.40;99.90;;;;;;4964130;28;20281;-60
2024/01/09 01:50:21;;;;;;;18.80;17.50;;;-5.50;99.90;;;;;;4970093;28;20667;-60
2024/01/09 01:52:50;;;;;;;18.97;17.47;;;-5.50;99.90;;;;;;4965884;28;20228;-60
2024/01/09 01:55:20;;;;;;;18.90;17.40;;;-5.50;99.90;;;;;;4964378;28;20206;-60
2024/01/09 01:57:49;;;;;;;19.13;17.73;;;-5.50;99.90;;;;;;4946208;28;20302;-60
2024/01/09 02:00:21;;;;;;;18.47;17.17;;;-5.50;99.90;;;;;;4944999;28;20195;-59
2024/01/09 02:02:50;;;;;;;17.97;16.77;;;-5.60;99.90;;;;;;4952071;28;20252;-60
2024/01/09 02:05:18;;;;;;;18.77;17.37;;;-5.60;99.90;;;;;;4952841;28;20709;-59
2024/01/09 02:07:46;;;;;;;18.50;17.13;;;-5.60;99.90;;;;;;4967188;28;20199;-62
2024/01/09 02:10:14;;;;;;;20.10;18.57;;;-5.60;99.90;;;;;;4971373;28;20656;-60
2024/01/09 02:12:42;;;;;;;18.40;17.10;;;-5.60;99.90;;;;;;4953850;28;20840;-61
2024/01/09 02:15:09;;;;;;;18.87;17.47;;;-5.60;99.90;;;;;;4951551;28;20399;-60
2024/01/09 02:17:38;;;;;;;19.90;18.40;;;-5.60;99.90;;;;;;4953405;28;20293;-61
2024/01/09 02:20:07;;;;;;;19.47;17.97;;;-5.60;99.90;;;;;;4953802;28;20673;-60
2024/01/09 02:22:34;;;;;;;19.60;18.10;;;-5.60;99.90;;;;;;4967989;28;20666;-60
2024/01/09 02:25:02;;;;;;;19.13;17.73;;;-5.60;99.90;;;;;;4961085;28;20195;-60
2024/01/09 02:27:56;;;;;;;18.80;17.50;;;-5.60;99.90;;;;;;4970283;28;20274;-61
2024/01/09 02:30:24;;;;;;;18.77;17.37;;;-5.70;99.90;;;;;;4965621;28;20596;-61
2024/01/09 02:32:52;;;;;;;19.30;17.90;;;-5.70;99.90;;;;;;4947936;28;20237;-61
2024/01/09 02:35:20;;;;;;;18.80;17.40;;;-5.60;99.90;;;;;;4952480;28;20334;-61
2024/01/09 02:37:47;;;;;;;18.87;17.50;;;-5.70;99.90;;;;;;4963694;28;20756;-60
2024/01/09 02:40:14;;;;;;;18.23;17.03;;;-5.70;99.90;;;;;;4934945;28;20612;-60
2024/01/09 02:42:41;;;;;;;18.60;17.30;;;-5.70;99.90;;;;;;4966802;28;20217;-60
2024/01/09 02:45:10;;;;;;;19.40;17.77;;;-5.70;99.90;;;;;;4966073;28;20536;-60
2024/01/09 02:47:37;;;;;;;19.37;17.77;;;-5.70;99.90;;;;;;4932433;29;20543;-60
2024/01/09 02:50:04;;;;;;;18.60;17.30;;;-5.70;99.90;;;;;;4963709;28;20308;-60
2024/01/09 02:52:31;;;;;;;18.73;17.23;;;-5.70;99.90;;;;;;4951145;28;20222;-60
2024/01/09 02:54:58;;;;;;;18.40;17.10;;;-5.70;99.90;;;;;;4933993;28;20299;-60
2024/01/09 02:57:25;;;;;;;19.10;17.70;;;-5.80;99.90;;;;;;4963609;28;20606;-60
2024/01/09 02:59:52;;;;;;;19.00;17.50;;;-5.80;99.90;;;;;;4950085;28;20202;-59
2024/01/09 03:06:19;;;;;;;18.87;17.47;;;-5.80;99.90;;;;;;4959871;28;20177;-60
2024/01/09 03:08:48;;;;;;;18.80;17.40;;;-5.80;99.90;;;;;;4948157;28;20205;-62
2024/01/09 03:11:15;;;;;;;19.00;17.60;;;-5.80;99.90;;;;;;4963141;28;20222;-60
2024/01/09 03:13:43;;;;;;;18.67;17.37;;;-5.90;99.90;;;;;;4963165;28;20191;-60
2024/01/09 03:16:14;;;;;;;18.90;17.60;;;-5.90;99.90;;;;;;4966190;28;20559;-60
2024/01/09 03:18:41;;;;;;;18.63;17.27;;;-5.90;99.90;;;;;;4951917;28;20198;-60
2024/01/09 03:21:11;;;;;;;18.20;17.00;;;-5.90;99.90;;;;;;4952101;28;20289;-59
2024/01/09 03:23:37;;;;;;;19.73;18.23;;;-5.90;99.90;;;;;;4951709;28;20242;-59
2024/01/09 03:26:04;;;;;;;18.37;17.07;;;-5.90;99.90;;;;;;4964811;28;20233;-59
2024/01/09 03:28:31;;;;;;;18.67;17.37;;;-5.90;99.90;;;;;;4968062;28;20916;-59
2024/01/09 03:30:58;;;;;;;19.77;18.27;;;-5.90;99.90;;;;;;4966272;28;20187;-59
2024/01/09 03:33:25;;;;;;;18.13;16.93;;;-5.90;99.90;;;;;;4967648;28;20206;-61
2024/01/09 03:35:52;;;;;;;19.00;17.60;;;-5.90;99.90;;;;;;4953069;28;20317;-61
2024/01/09 03:38:19;;;;;;;19.47;17.97;;;-5.90;99.90;;;;;;4950554;28;20634;-61
2024/01/09 03:40:46;;;;;;;18.30;17.00;;;-5.90;99.90;;;;;;4964001;28;20297;-60
2024/01/09 03:43:13;;;;;;;18.40;17.10;;;-5.90;99.90;;;;;;4950095;28;20218;-61
2024/01/09 03:45:40;;;;;;;19.50;18.00;;;-5.90;99.90;;;;;;4961549;28;20202;-61
2024/01/09 03:48:07;;;;;;;19.70;18.10;;;-5.90;99.90;;;;;;4948507;28;20201;-62
2024/01/09 03:50:34;;;;;;;19.43;17.73;;;-5.90;99.90;;;;;;4967703;28;20198;-61
2024/01/09 03:53:01;;;;;;;18.20;16.90;;;-6.00;99.90;;;;;;4950293;28;20206;-61
2024/01/09 03:55:28;;;;;;;18.27;16.93;;;-6.00;99.90;;;;;;4945593;28;20194;-61
2024/01/09 03:57:55;;;;;;;19.93;18.03;;;-6.00;99.90;;;;;;4947626;28;21212;-61
2024/01/09 04:00:22;;;;;;;18.93;17.57;;;-6.10;99.90;;;;;;4967539;28;20218;-60
2024/01/09 04:02:49;;;;;;;18.53;17.17;;;-6.10;99.90;;;;;;4970264;28;20232;-62
2024/01/09 04:05:16;;;;;;;18.77;17.37;;;-6.10;99.90;;;;;;4944132;28;20203;-61
2024/01/09 04:07:43;;;;;;;19.20;17.83;;;-6.10;99.90;;;;;;4964589;28;20769;-59
2024/01/09 04:10:10;;;;;;;20.03;17.97;;;-6.00;99.90;;;;;;4931702;28;20240;-60
2024/01/09 04:12:37;;;;;;;19.03;17.53;;;-6.10;99.90;;;;;;4961357;28;20210;-60
2024/01/09 04:15:04;;;;;;;20.13;18.60;;;-6.10;99.90;;;;;;4948695;28;20280;-62
2024/01/09 04:17:31;;;;;;;18.83;17.53;;;-6.10;99.90;;;;;;4967485;28;20202;-62
2024/01/09 04:19:58;;;;;;;19.97;18.57;;;-6.10;99.90;;;;;;4949538;28;20223;-62
2024/01/09 04:22:25;;;;;;;20.23;18.73;;;-6.20;99.90;;;;;;4946561;28;20230;-61
2024/01/09 04:24:52;;;;;;;19.77;18.07;;;-6.20;99.90;;;;;;4963029;28;20207;-63
2024/01/09 04:27:19;;;;;;;19.93;18.37;;;-6.20;99.90;;;;;;4947212;28;20249;-62
2024/01/09 04:29:46;;;;;;;18.37;17.17;;;-6.20;99.90;;;;;;4961670;28;20609;-63
2024/01/09 04:32:14;;;;;;;19.53;18.13;;;-6.20;99.90;;;;;;4950501;28;20654;-62
2024/01/09 04:34:42;;;;;;;18.43;17.20;;;-6.20;99.90;;;;;;4967116;28;20206;-63
2024/01/09 04:37:09;;;;;;;18.70;17.37;;;-6.30;99.90;;;;;;4946550;28;20647;-60
2024/01/09 04:39:36;;;;;;;18.90;17.60;;;-6.30;99.90;;;;;;4963292;28;20381;-61
2024/01/09 04:42:03;;;;;;;18.93;17.53;;;-6.20;99.90;;;;;;4950595;28;20198;-59
2024/01/09 04:44:30;;;;;;;18.80;17.50;;;-6.30;99.90;;;;;;4966720;28;20318;-59
2024/01/09 04:46:58;;;;;;;19.47;18.07;;;-6.30;99.90;;;;;;4966733;28;20278;-61
2024/01/09 04:49:25;;;;;;;19.87;18.30;;;-6.30;99.90;;;;;;4969342;28;20615;-59
2024/01/09 04:51:55;;;;;;;19.17;17.77;;;-6.30;99.90;;;;;;4968700;28;20465;-59
2024/01/09 04:54:22;;;;;;;20.23;18.63;;;-6.30;99.90;;;;;;4953116;28;20401;-62
2024/01/09 04:56:49;;;;;;;20.50;18.70;;;-6.30;99.90;;;;;;4971834;28;20257;-60
2024/01/09 04:59:16;;;;;;;18.83;17.40;;;-6.30;99.90;;;;;;4949641;28;20298;-59
2024/01/09 05:01:51;;;;;;;19.23;17.83;;;-6.40;99.90;;;;;;4971193;28;20198;-59
2024/01/09 05:04:18;;;;;;;19.30;17.80;;;-6.30;99.90;;;;;;4969129;28;20643;-61
2024/01/09 05:06:45;;;;;;;18.03;16.83;;;-6.30;99.90;;;;;;4948315;28;20191;-61
2024/01/09 05:09:12;;;;;;;20.17;18.43;;;-6.30;99.90;;;;;;4969535;28;20225;-62
2024/01/09 05:11:39;;;;;;;18.33;17.10;;;-6.30;99.90;;;;;;4967591;28;20626;-61
2024/01/09 05:14:06;;;;;;;20.70;18.23;;;-6.30;99.90;;;;;;4967337;28;20217;-61
2024/01/09 05:16:33;;;;;;;20.93;19.10;;;-6.20;99.90;;;;;;4967826;28;20683;-61
2024/01/09 05:19:00;;;;;;;18.30;17.10;;;-6.30;99.90;;;;;;4937899;28;20234;-60
2024/01/09 05:21:30;;;;;;;19.13;17.73;;;-6.30;99.90;;;;;;4969699;28;20237;-63
2024/01/09 05:23:57;;;;;;;19.63;18.23;;;-6.30;99.90;;;;;;4970823;28;20551;-60
2024/01/09 05:26:24;;;;;;;19.77;18.07;;;-6.20;99.90;;;;;;4970244;28;20199;-62
2024/01/09 05:28:51;;;;;;;19.43;18.03;;;-6.30;99.90;;;;;;4954929;28;20199;-59
2024/01/09 05:31:18;;;;;;;18.80;17.47;;;-6.30;99.90;;;;;;4971656;28;20521;-60
2024/01/09 05:33:45;;;;;;;19.13;17.73;;;-6.20;99.90;;;;;;4968598;28;20840;-62
2024/01/09 05:36:13;;;;;;;20.20;18.60;;;-6.30;99.90;;;;;;4951594;28;20959;-61
2024/01/09 05:38:39;;;;;;;19.37;17.93;;;-6.20;99.90;;;;;;4964975;28;20265;-60
2024/01/09 05:41:07;;;;;;;19.03;17.63;;;-6.20;99.90;;;;;;4968730;28;20277;-61
2024/01/09 05:43:34;;;;;;;19.57;18.07;;;-6.30;99.90;;;;;;4952536;28;20222;-61
2024/01/09 05:46:01;;;;;;;20.27;18.60;;;-6.30;99.90;;;;;;4971196;28;20253;-61
2024/01/09 05:48:28;;;;;;;19.87;18.17;;;-6.40;99.90;;;;;;4967264;28;20194;-61
2024/01/09 05:50:55;;;;;;;19.37;17.90;;;-6.40;99.90;;;;;;4971164;28;20213;-61
2024/01/09 05:53:22;;;;;;;19.67;17.93;;;-6.40;99.90;;;;;;4945537;28;20206;-61
2024/01/09 05:55:49;;;;;;;19.83;18.37;;;-6.40;99.90;;;;;;4971890;28;20764;-61
2024/01/09 05:58:16;;;;;;;19.30;17.90;;;-6.40;99.90;;;;;;4953119;28;20202;-61
2024/01/09 06:00:43;;;;;;;21.37;19.57;;;-6.50;99.90;;;;;;4939127;28;20232;-62
2024/01/09 06:03:10;;;;;;;19.83;18.30;;;-6.50;99.90;;;;;;4970908;28;20210;-63
2024/01/09 06:05:37;;;;;;;20.17;18.50;;;-6.50;99.90;;;;;;4971033;28;20191;-63
2024/01/09 06:08:05;;;;;;;19.70;18.20;;;-6.40;99.90;;;;;;4954724;28;20230;-63
2024/01/09 06:10:32;;;;;;;20.47;18.83;;;-6.40;99.90;;;;;;4953897;28;20244;-63
2024/01/09 06:12:59;;;;;;;19.73;18.27;;;-6.40;99.90;;;;;;4967929;28;20273;-63
2024/01/09 06:15:26;;;;;;;20.10;18.50;;;-6.40;99.90;;;;;;4954752;28;20256;-63
2024/01/09 06:17:54;;;;;;;19.77;18.17;;;-6.50;99.90;;;;;;4953526;28;20259;-63
2024/01/09 06:20:22;;;;;;;23.43;18.80;;;-6.40;99.90;;;;;;4970979;28;20651;-63
2024/01/09 06:22:49;;;;;;;21.40;19.60;;;-6.40;99.90;;;;;;4953850;28;20276;-63
2024/01/09 06:25:16;;;;;;;21.93;19.87;;;-6.40;99.90;;;;;;4951222;28;20511;-63
2024/01/09 06:27:43;;;;;;;21.17;19.30;;;-6.40;99.90;;;;;;4950456;29;20199;-63
2024/01/09 06:30:10;;;;;;;20.50;18.80;;;-6.40;99.90;;;;;;4942359;28;20197;-63
2024/01/09 06:32:37;;;;;;;20.47;18.93;;;-6.50;99.90;;;;;;4971620;28;20280;-63
2024/01/09 06:35:05;;;;;;;20.87;19.27;;;-6.60;99.90;;;;;;4953873;28;20191;-61
2024/01/09 06:37:32;;;;;;;19.20;17.73;;;-6.60;99.90;;;;;;4963422;28;20268;-64
2024/01/09 06:39:59;;;;;;;19.40;17.77;;;-6.40;99.90;;;;;;4952253;28;20237;-61
2024/01/09 06:42:25;;;;;;;19.87;18.10;;;-6.50;99.90;;;;;;4970462;28;20697;-61
2024/01/09 06:44:52;;;;;;;20.47;18.87;;;-6.50;99.90;;;;;;4952628;28;20608;-62
2024/01/09 06:47:19;;;;;;;18.83;17.53;;;-6.50;99.90;;;;;;4970289;28;20225;-61
2024/01/09 06:49:46;;;;;;;20.33;18.63;;;-6.60;99.90;;;;;;4970236;28;20202;-62
2024/01/09 06:52:16;;;;;;;20.20;18.50;;;-6.60;99.90;;;;;;4953732;28;20208;-61
2024/01/09 06:54:43;;;;;;;19.60;17.90;;;-6.60;99.90;;;;;;4967015;28;20210;-61
2024/01/09 06:57:10;;;;;;;19.83;18.27;;;-6.60;99.90;;;;;;4970669;28;20268;-62
2024/01/09 06:59:37;;;;;;;21.23;19.20;;;-6.60;99.90;;;;;;4970802;28;20612;-64
2024/01/09 07:02:05;;;;;;;20.07;18.50;;;-6.60;99.90;;;;;;4938627;29;20206;-61
2024/01/09 07:04:31;;;;;;;19.43;17.87;;;-6.60;99.90;;;;;;4964251;28;20210;-62
2024/01/09 07:06:58;;;;;;;19.47;17.97;;;-6.50;99.90;;;;;;4969550;28;20652;-62
2024/01/09 07:09:25;;;;;;;19.30;17.90;;;-6.50;99.90;;;;;;4969437;28;20201;-63
2024/01/09 07:11:52;;;;;;;18.60;17.30;;;-6.60;99.90;;;;;;4952593;28;20785;-63
2024/01/09 07:14:19;;;;;;;18.70;17.47;;;-6.60;99.90;;;;;;4951716;28;20206;-63
2024/01/09 07:16:47;;;;;;;19.53;17.93;;;-6.50;99.90;;;;;;4968566;28;20198;-63
2024/01/09 07:19:14;;;;;;;19.90;18.43;;;-6.50;99.90;;;;;;4950823;28;20626;-63
2024/01/09 07:21:41;;;;;;;19.50;18.00;;;-6.50;99.90;;;;;;4970256;28;20214;-63
2024/01/09 07:24:07;;;;;;;19.27;17.77;;;-6.50;99.90;;;;;;4963421;28;20214;-62
2024/01/09 07:26:39;;;;;;;19.23;17.83;;;-6.50;99.90;;;;;;4969733;28;20236;-63
2024/01/09 07:29:06;;;;;;;19.20;17.83;;;-6.40;99.90;;;;;;4952256;28;20217;-64
2024/01/09 07:31:33;;;;;;;19.83;18.07;;;-6.50;99.90;;;;;;4953363;28;20190;-63
2024/01/09 07:34:00;;;;;;;19.07;17.60;;;-6.50;99.90;;;;;;4953254;28;20205;-61
2024/01/09 07:36:27;;;;;;;19.30;17.80;;;-6.40;99.90;;;;;;4951905;28;20615;-64
2024/01/09 07:38:54;;;;;;;18.90;17.53;;;-6.40;99.90;;;;;;4968542;28;20338;-63
2024/01/09 07:41:21;;;;;;;21.83;19.87;;;-6.40;99.90;;;;;;4970395;28;20271;-64
2024/01/09 07:43:48;;;;;;;18.50;17.13;;;-6.40;99.90;;;;;;4963356;28;20214;-64
2024/01/09 07:46:15;;;;;;;20.33;18.57;;;-6.40;99.90;;;;;;4968441;28;20257;-61
2024/01/09 07:48:42;;;;;;;20.73;18.37;;;-6.40;99.90;;;;;;4969490;28;20614;-62
2024/01/09 07:51:09;;;;;;;19.40;17.90;;;-6.40;99.90;;;;;;4969466;28;20837;-62
2024/01/09 07:53:36;;;;;;;18.93;17.53;;;-6.40;99.90;;;;;;4963275;28;20671;-62
2024/01/09 07:56:22;;;;;;;20.17;18.63;;;-6.40;99.90;;;;;;4951831;28;20210;-63
2024/01/09 07:58:49;;;;;;;21.83;19.93;;;-6.40;99.90;;;;;;4974720;28;20256;-61
2024/01/09 08:01:16;;;;;;;20.07;18.47;;;-6.40;99.90;;;;;;4951671;28;20195;-62
2024/01/09 08:03:43;;;;;;;22.03;19.67;;;-6.30;99.90;;;;;;4951589;28;20612;-63
2024/01/09 08:06:15;;;;;;;18.80;17.40;;;-6.30;99.90;;;;;;4951618;28;20257;-62
2024/01/09 08:08:43;;;;;;;20.30;18.70;;;-6.30;99.90;;;;;;4964811;28;20198;-62
2024/01/09 08:11:16;;;;;;;19.83;17.80;;;-6.30;99.90;;;;;;4952686;28;20230;-61
2024/01/09 08:13:43;;;;;;;19.20;17.80;;;-6.20;99.90;;;;;;4968906;28;20202;-63
2024/01/09 08:16:10;;;;;;;19.00;17.60;;;-6.20;99.90;;;;;;4972373;28;20661;-63
2024/01/09 08:18:37;;;;;;;18.90;17.50;;;-6.20;99.90;;;;;;4972522;28;20206;-61
2024/01/09 08:21:06;;;;;;;19.47;17.90;;;-6.10;99.90;;;;;;4972623;28;20224;-63
2024/01/09 08:23:35;;;;;;;20.70;18.30;;;-6.10;99.90;;;;;;4972518;28;20245;-61
2024/01/09 08:26:02;;;;;;;18.97;17.47;;;-6.10;99.90;;;;;;4952541;28;20206;-62
2024/01/09 08:28:29;;;;;;;18.97;17.57;;;-6.00;99.90;;;;;;4970752;28;20222;-61
2024/01/09 08:30:56;;;;;;;19.03;17.60;;;-6.00;99.90;;;;;;4955339;28;20206;-62
2024/01/09 08:33:23;;;;;;;19.43;18.03;;;-6.00;99.90;;;;;;4972565;28;20194;-63
2024/01/09 08:35:53;;;;;;;19.80;18.20;;;-5.90;99.90;;;;;;4958807;28;20273;-60
2024/01/09 08:38:20;;;;;;;19.37;17.90;;;-5.90;99.90;;;;;;4972142;28;20601;-63
2024/01/09 08:40:53;;;;;;;20.50;18.70;;;-5.80;99.90;;;;;;4955194;28;20269;-62
2024/01/09 08:43:20;;;;;;;19.20;17.70;;;-5.80;99.90;;;;;;4954881;28;20269;-62
2024/01/09 08:45:48;;;;;;;18.63;17.23;;;-5.70;99.90;;;;;;4974079;28;20206;-62
2024/01/09 08:48:16;;;;;;;18.40;17.00;;;-5.70;99.90;;;;;;4972446;28;20273;-61
2024/01/09 08:50:43;;;;;;;19.60;18.10;;;-5.60;99.90;;;;;;4955393;28;20294;-62
2024/01/09 08:53:10;;;;;;;18.53;17.13;;;-5.60;99.90;;;;;;4954579;28;20209;-64
2024/01/09 08:55:38;;;;;;;19.13;17.73;;;-5.60;99.90;;;;;;4972139;28;20277;-63
2024/01/09 08:58:05;;;;;;;19.43;18.00;;;-5.50;99.90;;;;;;4954603;28;20241;-63
2024/01/09 09:00:32;;;;;;;19.27;17.87;;;-5.50;99.90;;;;;;4972616;28;20293;-62
2024/01/09 09:02:59;;;;;;;19.33;17.93;;;-5.40;99.90;;;;;;4976950;28;20257;-62
2024/01/09 09:05:26;;;;;;;19.97;18.40;;;-5.40;99.90;;;;;;4972490;28;20205;-61
2024/01/09 09:07:54;;;;;;;19.00;17.37;;;-5.30;99.90;;;;;;4972619;28;20476;-62
2024/01/09 09:10:21;;;;;;;22.80;20.67;;;-5.30;99.90;;;;;;4954302;28;20617;-61
2024/01/09 09:12:48;;;;;;;19.80;18.27;;;-5.20;99.90;;;;;;4954412;28;20226;-61
2024/01/09 09:15:15;;;;;;;19.23;17.63;;;-5.10;99.90;;;;;;4971686;28;20249;-61
2024/01/09 09:17:42;;;;;;;19.73;17.97;;;-5.10;99.90;;;;;;4943311;28;20214;-61
2024/01/09 09:20:11;;;;;;;18.17;16.90;;;-5.00;99.90;;;;;;4972242;28;20278;-61
2024/01/09 09:22:38;;;;;;;20.20;18.57;;;-4.90;99.90;;;;;;4954786;28;20198;-63
2024/01/09 09:25:08;;;;;;;20.60;18.77;;;-4.80;99.90;;;;;;4971869;28;20822;-61
2024/01/09 09:27:35;;;;;;;20.37;18.60;;;-3.80;99.90;;;;;;4934070;29;20207;-62
2024/01/09 09:30:02;;;;;;;20.97;19.27;;;0.50;99.90;;;;;;4949611;28;20198;-62
2024/01/09 09:32:31;;;;;;;19.67;18.20;;;3.50;99.90;;;;;;4971766;28;20213;-61
2024/01/09 09:34:58;;;;;;;21.60;19.60;;;4.80;99.90;;;;;;4972479;28;20190;-61
2024/01/09 09:37:25;;;;;;;22.83;20.43;;;4.60;99.90;;;;;;4955510;28;20199;-61
2024/01/09 09:39:52;;;;;;;22.27;20.33;;;4.30;99.90;;;;;;4950007;29;20281;-62
2024/01/09 09:42:25;;;;;;;21.40;19.50;;;3.90;99.90;;;;;;4951553;29;20215;-61
2024/01/09 09:44:53;;;;;;;22.43;20.50;;;3.40;99.90;;;;;;4952345;28;20234;-61
2024/01/09 09:47:21;;;;;;;22.47;20.53;;;5.50;99.90;;;;;;4952836;29;20202;-61
2024/01/09 09:49:50;;;;;;;22.57;20.30;;;5.00;99.90;;;;;;4952475;29;20195;-61
2024/01/09 09:52:19;;;;;;;23.70;21.60;;;5.80;99.90;;;;;;4952781;29;20206;-61
2024/01/09 09:54:47;;;;;;;23.70;21.03;;;5.60;99.90;;;;;;4952631;29;20206;-61
2024/01/09 09:57:14;;;;;;;22.90;20.90;;;5.50;99.90;;;;;;4951260;29;20262;-61
2024/01/09 09:59:41;;;;;;;23.20;21.10;;;5.60;99.90;;;;;;4951322;28;20191;-61
2024/01/09 10:02:20;;;;;;;23.53;21.40;;;5.30;99.90;;;;;;4936172;29;20237;-61
2024/01/09 10:04:53;;;;;;;22.97;21.17;;;6.20;99.90;;;;;;4944742;29;20473;-61
2024/01/09 10:07:22;;;;;;;22.87;20.90;;;5.60;99.90;;;;;;4951111;28;20270;-61
2024/01/09 10:09:53;;;;;;;23.23;21.23;;;6.50;99.90;;;;;;4952262;29;20191;-61
2024/01/09 10:12:24;;;;;;;23.07;21.17;;;7.60;99.90;;;;;;4950634;28;20227;-61
2024/01/09 10:15:07;;;;;;;24.07;21.67;;;7.50;99.90;;;;;;4950052;29;20202;-61
2024/01/09 10:17:35;;;;;;;23.33;21.30;;;8.00;99.90;;;;;;4950710;29;20203;-61
2024/01/09 10:20:04;;;;;;;22.70;20.80;;;7.20;99.90;;;;;;4951835;29;20266;-61
2024/01/09 10:22:35;;;;;;;23.70;21.60;;;7.70;99.90;;;;;;4950755;29;20699;-61
2024/01/09 10:25:06;;;;;;;23.07;21.17;;;6.20;99.90;;;;;;4951541;29;20314;-60
2024/01/09 10:27:35;;;;;;;23.73;21.73;;;6.20;99.90;;;;;;4950491;29;20218;-61
2024/01/09 10:30:04;;;;;;;23.27;21.37;;;6.70;99.90;;;;;;4951903;29;20195;-61
2024/01/09 10:32:33;;;;;;;25.70;23.23;;;6.60;99.90;;;;;;4952138;29;20190;-61
2024/01/09 10:35:03;;;;;;;24.23;22.03;;;7.20;99.90;;;;;;4935198;29;20304;-61
2024/01/09 10:37:34;;;;;;;24.20;22.00;;;7.60;99.90;;;;;;4951915;28;20711;-60
2024/01/09 10:40:01;;;;;;;24.23;22.07;;;7.30;99.90;;;;;;4970392;28;20249;-61
2024/01/09 10:42:30;;;;;;;24.53;22.07;;;7.10;99.90;;;;;;4952002;28;20742;-60
2024/01/09 10:44:58;;;;;;;23.43;21.53;;;6.80;99.90;;;;;;4948779;29;20231;-60
2024/01/09 10:47:27;;;;;;;23.73;21.67;;;6.00;99.90;;;;;;4966228;28;20186;-61
2024/01/09 10:49:55;;;;;;;24.60;22.17;;;6.30;99.90;;;;;;4954201;28;20233;-61
2024/01/09 10:52:25;;;;;;;23.63;21.47;;;6.40;99.90;;;;;;4969388;28;20303;-61
2024/01/09 10:54:55;;;;;;;23.33;21.33;;;5.70;99.90;;;;;;4970004;28;20198;-61
2024/01/09 10:57:21;;;;;;;24.10;22.00;;;5.00;99.90;;;;;;4969573;28;20194;-61
2024/01/09 10:59:50;;;;;;;23.07;21.10;;;5.50;99.90;;;;;;4965631;28;20198;-61
2024/01/09 11:02:22;;;;;;;23.87;21.87;;;5.70;99.90;;;;;;4973247;28;20212;-61
2024/01/09 11:04:49;;;;;;;23.53;21.53;;;4.20;99.90;;;;;;4969749;28;20658;-61
2024/01/09 11:07:17;;;;;;;24.43;22.33;;;5.00;99.90;;;;;;4951854;28;20222;-61
2024/01/09 11:09:46;;;;;;;23.50;21.50;;;3.90;99.90;;;;;;4969385;28;20197;-61
2024/01/09 11:12:20;;;;;;;23.60;21.63;;;4.30;99.90;;;;;;4952314;28;20225;-61
2024/01/09 11:14:55;;;;;;;23.03;21.13;;;5.60;99.90;;;;;;4948446;28;20213;-61
2024/01/09 11:17:24;;;;;;;23.17;21.30;;;3.80;99.90;;;;;;4963357;28;20308;-61
2024/01/09 11:19:51;;;;;;;23.53;21.50;;;5.20;99.90;;;;;;4952485;28;20198;-61
2024/01/09 11:22:19;;;;;;;23.33;21.43;;;4.80;99.90;;;;;;4969343;28;20210;-61
2024/01/09 11:24:47;;;;;;;23.77;21.67;;;4.70;99.90;;;;;;4969484;28;20765;-60
2024/01/09 11:27:19;;;;;;;24.20;22.00;;;3.90;99.90;;;;;;4967024;28;20634;-61
2024/01/09 11:29:53;;;;;;;23.57;21.57;;;3.90;99.90;;;;;;4968352;28;20202;-60
2024/01/09 11:32:27;;;;;;;23.43;21.33;;;5.20;99.90;;;;;;4969010;28;20193;-61
2024/01/09 11:35:14;;;;;;;23.30;21.20;;;5.00;99.90;;;;;;4951613;28;20543;-60
2024/01/09 11:37:43;;;;;;;23.57;21.27;;;4.10;99.90;;;;;;4960981;28;20733;-60
2024/01/09 11:40:11;;;;;;;24.60;22.10;;;4.10;99.90;;;;;;4969280;28;20246;-61
2024/01/09 11:42:42;;;;;;;23.23;21.23;;;4.20;99.90;;;;;;4968789;28;20280;-60
2024/01/09 11:45:12;;;;;;;23.30;21.30;;;3.90;99.90;;;;;;4959184;28;20675;-60
2024/01/09 11:47:39;;;;;;;22.47;20.57;;;3.80;99.90;;;;;;4964322;28;20314;-60
2024/01/09 11:50:08;;;;;;;23.53;21.53;;;3.90;99.90;;;;;;4951210;28;20306;-59
2024/01/09 11:52:35;;;;;;;23.43;21.33;;;3.10;99.90;;;;;;4968650;28;20221;-59
2024/01/09 11:55:10;;;;;;;22.23;20.43;;;3.80;99.90;;;;;;4968892;28;20200;-58
2024/01/09 11:57:39;;;;;;;23.60;21.60;;;3.80;99.90;;;;;;4952391;28;20690;-60
2024/01/09 12:00:09;;;;;;;24.40;21.87;;;4.40;99.90;;;;;;4950954;28;20297;-60
2024/01/09 12:02:37;;;;;;;23.53;21.67;;;3.50;99.90;;;;;;4952543;28;20671;-61
2024/01/09 12:05:08;;;;;;;23.43;21.50;;;4.20;99.90;;;;;;4951687;28;20266;-60
2024/01/09 12:07:37;;;;;;;24.27;22.03;;;3.40;99.90;;;;;;4968840;28;20198;-60
2024/01/09 12:10:08;;;;;;;23.70;21.70;;;2.60;99.90;;;;;;4951503;28;20703;-60
2024/01/09 12:12:51;;;;;;;23.43;21.53;;;2.70;99.90;;;;;;4948517;28;20241;-60
2024/01/09 12:15:21;;;;;;;23.60;21.60;;;2.70;99.90;;;;;;4948506;29;20203;-60
2024/01/09 12:17:56;;;;;;;23.40;21.40;;;3.60;99.90;;;;;;4962935;28;20671;-60
2024/01/09 12:20:25;;;;;;;23.93;21.73;;;3.90;99.90;;;;;;4969129;28;20283;-61
2024/01/09 12:22:53;;;;;;;23.23;20.93;;;3.70;99.90;;;;;;4968675;28;20220;-60
2024/01/09 12:25:21;;;;;;;23.30;21.17;;;4.20;99.90;;;;;;4969646;28;20245;-60
2024/01/09 12:27:48;;;;;;;24.80;22.60;;;4.00;99.90;;;;;;4966749;28;20539;-60
2024/01/09 12:30:15;;;;;;;24.13;21.97;;;2.70;99.90;;;;;;4951081;28;20207;-61
2024/01/09 12:32:42;;;;;;;24.83;22.47;;;2.70;99.90;;;;;;4968320;28;20198;-61
2024/01/09 12:35:10;;;;;;;24.00;22.00;;;2.70;99.90;;;;;;4969419;28;20206;-61
2024/01/09 12:37:37;;;;;;;24.10;22.00;;;1.80;99.90;;;;;;4950904;28;20203;-61